Pagina principale
METAR-TAF:

METAR-TAF

Aeroporti :

Aeroporto di Esenboğa

Ankara Esenboğa, Turchia

latitudine: 40-07N, longitudine: 032-59E, altezza: 953 m

Osservazione

Il bollettino è stato emesso 51 minuti fa, alle 02:20 UTC
Vento 3 kt da ovest/nord-ovest
Temperature 8°C
Umidità 87%
Pressione 1019 hPa
Visibilità 10 km o più
nessuna nube inferiore a 1500 m e nessun cumulonembo

METAR: LTAC 230220Z 30003KT CAVOK 08/06 Q1019 NOSIG RMK RWY21L 27003KT RWY03L 30002KT RWY21R 29002KT

Ora: 06:11 (03:11 UTC)

Previsione

Il bollettino è stato emesso 4 ore e 31 minuti fa, alle 22:40 UTC
Previsione valida dal 23 alle 00 UTC al 23 alle 24 UTC
Vento 2 kt da direzioni variabili
Visibilità 10 km o più
nessuna nube inferiore a 1500 m e nessun cumulonembo
Evoluzione graduale
dal 23 alle 04 UTC al 23 alle 06 UTC
Nubi sparse ad un'altezza di 4000 ft

TAF: LTAC 222240Z 2300/2324 VRB02KT CAVOK BECMG 2304/2306 SCT040

Osservazioni e previsioni meteorologiche di più di 4000 aeroporti (messaggi METAR e TAF).

Le stazioni disponibili sono rappresentate dai dischi gialli e rossi sulla carta.

Puntare il mouse per vedere il nome della stazione.

Clicca sopra per visualizzare le osservazioni e previsioni meteorologiche.

Per cambiare la mappa : fare clic sui pulsanti verdi con una croce nera per ingrandire, il pulsante verde con un trattino per diminuire, o sulla freccia verde per le mappe adiacenti.


METAR-TAF: